sensor_id;sensor_type;location;lat;lon;timestamp;P1;durP1;ratioP1;P2;durP2;ratioP2
38338;SDS011;37117;50.050;19.924;2022-12-07T00:02:13;13.70;;;8.90;;
38338;SDS011;37117;50.050;19.924;2022-12-07T00:04:44;16.10;;;8.50;;
38338;SDS011;37117;50.050;19.924;2022-12-07T00:07:14;13.10;;;8.00;;
38338;SDS011;37117;50.050;19.924;2022-12-07T00:09:45;14.30;;;7.90;;
38338;SDS011;37117;50.050;19.924;2022-12-07T00:12:16;11.60;;;7.30;;
38338;SDS011;37117;50.050;19.924;2022-12-07T00:14:47;11.80;;;7.30;;
38338;SDS011;37117;50.050;19.924;2022-12-07T00:17:18;12.20;;;7.00;;
38338;SDS011;37117;50.050;19.924;2022-12-07T00:19:48;11.10;;;7.20;;
38338;SDS011;37117;50.050;19.924;2022-12-07T00:22:19;10.90;;;6.90;;
38338;SDS011;37117;50.050;19.924;2022-12-07T00:24:50;11.00;;;6.80;;
38338;SDS011;37117;50.050;19.924;2022-12-07T00:27:20;10.80;;;7.00;;
38338;SDS011;37117;50.050;19.924;2022-12-07T00:29:51;13.90;;;7.90;;
38338;SDS011;37117;50.050;19.924;2022-12-07T00:32:21;11.30;;;7.00;;
38338;SDS011;37117;50.050;19.924;2022-12-07T00:34:52;13.10;;;7.20;;
38338;SDS011;37117;50.050;19.924;2022-12-07T00:37:22;10.00;;;6.20;;
38338;SDS011;37117;50.050;19.924;2022-12-07T00:39:53;10.50;;;6.70;;
38338;SDS011;37117;50.050;19.924;2022-12-07T00:42:24;11.30;;;6.50;;
38338;SDS011;37117;50.050;19.924;2022-12-07T00:44:55;12.80;;;6.60;;
38338;SDS011;37117;50.050;19.924;2022-12-07T00:47:25;8.80;;;5.60;;
38338;SDS011;37117;50.050;19.924;2022-12-07T00:49:56;10.60;;;7.10;;
38338;SDS011;37117;50.050;19.924;2022-12-07T00:52:27;11.30;;;7.30;;
38338;SDS011;37117;50.050;19.924;2022-12-07T00:54:57;12.30;;;6.90;;
38338;SDS011;37117;50.050;19.924;2022-12-07T00:57:28;12.10;;;6.30;;
38338;SDS011;37117;50.050;19.924;2022-12-07T01:00:01;13.10;;;6.10;;
38338;SDS011;37117;50.050;19.924;2022-12-07T01:02:32;11.10;;;7.20;;
38338;SDS011;37117;50.050;19.924;2022-12-07T01:05:03;9.80;;;6.10;;
38338;SDS011;37117;50.050;19.924;2022-12-07T01:07:33;10.50;;;7.40;;
38338;SDS011;37117;50.050;19.924;2022-12-07T01:10:05;10.30;;;6.40;;
38338;SDS011;37117;50.050;19.924;2022-12-07T01:12:36;9.60;;;6.60;;
38338;SDS011;37117;50.050;19.924;2022-12-07T01:15:08;10.60;;;5.50;;
38338;SDS011;37117;50.050;19.924;2022-12-07T01:17:38;8.90;;;5.70;;
38338;SDS011;37117;50.050;19.924;2022-12-07T01:20:10;8.40;;;5.60;;
38338;SDS011;37117;50.050;19.924;2022-12-07T01:22:41;9.50;;;5.80;;
38338;SDS011;37117;50.050;19.924;2022-12-07T01:25:12;10.60;;;6.30;;
38338;SDS011;37117;50.050;19.924;2022-12-07T01:27:43;9.70;;;6.30;;
38338;SDS011;37117;50.050;19.924;2022-12-07T01:30:14;9.80;;;6.70;;
38338;SDS011;37117;50.050;19.924;2022-12-07T01:32:44;10.50;;;6.50;;
38338;SDS011;37117;50.050;19.924;2022-12-07T01:35:15;12.10;;;6.80;;
38338;SDS011;37117;50.050;19.924;2022-12-07T01:37:45;10.10;;;6.10;;
38338;SDS011;37117;50.050;19.924;2022-12-07T01:40:16;9.30;;;6.50;;
38338;SDS011;37117;50.050;19.924;2022-12-07T01:42:47;10.30;;;6.50;;
38338;SDS011;37117;50.050;19.924;2022-12-07T01:48:15;9.90;;;5.80;;
38338;SDS011;37117;50.050;19.924;2022-12-07T01:50:47;11.20;;;5.50;;
38338;SDS011;37117;50.050;19.924;2022-12-07T01:53:18;9.70;;;6.30;;
38338;SDS011;37117;50.050;19.924;2022-12-07T01:55:49;11.30;;;7.60;;
38338;SDS011;37117;50.050;19.924;2022-12-07T01:58:22;11.60;;;7.10;;
38338;SDS011;37117;50.050;19.924;2022-12-07T02:00:52;9.90;;;6.40;;
38338;SDS011;37117;50.050;19.924;2022-12-07T02:03:24;11.80;;;6.70;;
38338;SDS011;37117;50.050;19.924;2022-12-07T02:05:56;11.50;;;6.30;;
38338;SDS011;37117;50.050;19.924;2022-12-07T02:08:28;13.00;;;7.00;;
38338;SDS011;37117;50.050;19.924;2022-12-07T02:10:59;12.30;;;7.30;;
38338;SDS011;37117;50.050;19.924;2022-12-07T02:13:30;11.90;;;7.90;;
38338;SDS011;37117;50.050;19.924;2022-12-07T02:16:06;11.80;;;6.60;;
38338;SDS011;37117;50.050;19.924;2022-12-07T02:18:55;11.20;;;7.00;;
38338;SDS011;37117;50.050;19.924;2022-12-07T02:21:29;11.40;;;6.30;;
38338;SDS011;37117;50.050;19.924;2022-12-07T02:24:14;10.60;;;6.70;;
38338;SDS011;37117;50.050;19.924;2022-12-07T02:29:32;13.10;;;7.70;;
38338;SDS011;37117;50.050;19.924;2022-12-07T02:32:06;12.40;;;7.20;;
38338;SDS011;37117;50.050;19.924;2022-12-07T02:34:42;10.80;;;6.80;;
38338;SDS011;37117;50.050;19.924;2022-12-07T02:37:17;11.30;;;7.70;;
38338;SDS011;37117;50.050;19.924;2022-12-07T02:39:50;11.40;;;6.90;;
38338;SDS011;37117;50.050;19.924;2022-12-07T02:42:23;13.20;;;7.40;;
38338;SDS011;37117;50.050;19.924;2022-12-07T02:44:57;13.20;;;7.40;;
38338;SDS011;37117;50.050;19.924;2022-12-07T02:47:29;11.10;;;7.10;;
38338;SDS011;37117;50.050;19.924;2022-12-07T02:50:00;12.30;;;7.50;;
38338;SDS011;37117;50.050;19.924;2022-12-07T02:52:33;10.10;;;6.50;;
38338;SDS011;37117;50.050;19.924;2022-12-07T02:55:03;13.10;;;7.70;;
38338;SDS011;37117;50.050;19.924;2022-12-07T02:57:38;10.50;;;6.90;;
38338;SDS011;37117;50.050;19.924;2022-12-07T03:00:22;13.00;;;6.50;;
38338;SDS011;37117;50.050;19.924;2022-12-07T03:02:55;14.50;;;7.10;;
38338;SDS011;37117;50.050;19.924;2022-12-07T03:08:13;12.10;;;7.10;;
38338;SDS011;37117;50.050;19.924;2022-12-07T03:10:46;11.50;;;7.00;;
38338;SDS011;37117;50.050;19.924;2022-12-07T03:13:21;10.80;;;6.80;;
38338;SDS011;37117;50.050;19.924;2022-12-07T03:15:54;12.80;;;7.60;;
38338;SDS011;37117;50.050;19.924;2022-12-07T03:20:56;13.20;;;6.80;;
38338;SDS011;37117;50.050;19.924;2022-12-07T03:23:27;10.80;;;7.30;;
38338;SDS011;37117;50.050;19.924;2022-12-07T03:25:59;10.50;;;6.80;;
38338;SDS011;37117;50.050;19.924;2022-12-07T03:28:31;11.80;;;7.80;;
38338;SDS011;37117;50.050;19.924;2022-12-07T03:31:02;11.90;;;7.50;;
38338;SDS011;37117;50.050;19.924;2022-12-07T03:33:37;12.40;;;8.40;;
38338;SDS011;37117;50.050;19.924;2022-12-07T03:36:11;11.80;;;7.80;;
38338;SDS011;37117;50.050;19.924;2022-12-07T03:38:45;16.50;;;8.30;;
38338;SDS011;37117;50.050;19.924;2022-12-07T03:41:18;10.80;;;7.10;;
38338;SDS011;37117;50.050;19.924;2022-12-07T03:43:52;13.90;;;7.60;;
38338;SDS011;37117;50.050;19.924;2022-12-07T03:46:27;11.40;;;7.50;;
38338;SDS011;37117;50.050;19.924;2022-12-07T03:49:02;9.70;;;7.00;;
38338;SDS011;37117;50.050;19.924;2022-12-07T03:51:36;11.60;;;7.50;;
38338;SDS011;37117;50.050;19.924;2022-12-07T03:54:09;13.60;;;8.50;;
38338;SDS011;37117;50.050;19.924;2022-12-07T03:56:42;11.80;;;8.40;;
38338;SDS011;37117;50.050;19.924;2022-12-07T03:59:13;14.60;;;9.40;;
38338;SDS011;37117;50.050;19.924;2022-12-07T04:01:44;13.60;;;8.40;;
38338;SDS011;37117;50.050;19.924;2022-12-07T04:04:15;15.30;;;9.20;;
38338;SDS011;37117;50.050;19.924;2022-12-07T04:06:45;17.30;;;9.30;;
38338;SDS011;37117;50.050;19.924;2022-12-07T04:09:16;15.80;;;8.60;;
38338;SDS011;37117;50.050;19.924;2022-12-07T04:11:46;16.70;;;9.20;;
38338;SDS011;37117;50.050;19.924;2022-12-07T04:14:17;17.00;;;10.40;;
38338;SDS011;37117;50.050;19.924;2022-12-07T04:16:49;16.30;;;11.10;;
38338;SDS011;37117;50.050;19.924;2022-12-07T04:19:20;13.10;;;8.80;;
38338;SDS011;37117;50.050;19.924;2022-12-07T04:21:51;15.20;;;9.30;;
38338;SDS011;37117;50.050;19.924;2022-12-07T04:24:21;15.10;;;10.00;;
38338;SDS011;37117;50.050;19.924;2022-12-07T04:26:52;18.40;;;11.10;;
38338;SDS011;37117;50.050;19.924;2022-12-07T04:29:24;15.00;;;10.10;;
38338;SDS011;37117;50.050;19.924;2022-12-07T04:31:54;15.80;;;9.70;;
38338;SDS011;37117;50.050;19.924;2022-12-07T04:34:25;13.60;;;9.90;;
38338;SDS011;37117;50.050;19.924;2022-12-07T04:36:56;16.30;;;10.50;;
38338;SDS011;37117;50.050;19.924;2022-12-07T04:39:27;17.00;;;10.60;;
38338;SDS011;37117;50.050;19.924;2022-12-07T04:41:58;14.90;;;10.20;;
38338;SDS011;37117;50.050;19.924;2022-12-07T04:44:29;16.20;;;10.70;;
38338;SDS011;37117;50.050;19.924;2022-12-07T04:47:00;14.40;;;10.40;;
38338;SDS011;37117;50.050;19.924;2022-12-07T04:49:33;16.60;;;11.30;;
38338;SDS011;37117;50.050;19.924;2022-12-07T04:52:04;16.70;;;11.00;;
38338;SDS011;37117;50.050;19.924;2022-12-07T04:54:35;19.10;;;12.90;;
38338;SDS011;37117;50.050;19.924;2022-12-07T04:57:05;18.90;;;11.20;;
38338;SDS011;37117;50.050;19.924;2022-12-07T04:59:36;18.80;;;10.70;;
38338;SDS011;37117;50.050;19.924;2022-12-07T05:02:13;15.20;;;10.00;;
38338;SDS011;37117;50.050;19.924;2022-12-07T05:04:44;16.20;;;10.20;;
38338;SDS011;37117;50.050;19.924;2022-12-07T05:07:14;16.40;;;11.00;;
38338;SDS011;37117;50.050;19.924;2022-12-07T05:09:45;14.60;;;9.90;;
38338;SDS011;37117;50.050;19.924;2022-12-07T05:12:15;23.80;;;12.20;;
38338;SDS011;37117;50.050;19.924;2022-12-07T05:14:46;19.20;;;12.40;;
38338;SDS011;37117;50.050;19.924;2022-12-07T05:17:17;16.80;;;11.80;;
38338;SDS011;37117;50.050;19.924;2022-12-07T05:19:49;17.00;;;11.60;;
38338;SDS011;37117;50.050;19.924;2022-12-07T05:22:20;17.30;;;11.10;;
38338;SDS011;37117;50.050;19.924;2022-12-07T05:24:50;16.90;;;11.30;;
38338;SDS011;37117;50.050;19.924;2022-12-07T05:27:21;19.20;;;13.90;;
38338;SDS011;37117;50.050;19.924;2022-12-07T05:29:51;18.70;;;12.70;;
38338;SDS011;37117;50.050;19.924;2022-12-07T05:32:22;17.40;;;12.60;;
38338;SDS011;37117;50.050;19.924;2022-12-07T05:34:52;19.80;;;12.10;;
38338;SDS011;37117;50.050;19.924;2022-12-07T05:37:24;15.70;;;11.10;;
38338;SDS011;37117;50.050;19.924;2022-12-07T05:39:54;17.20;;;11.80;;
38338;SDS011;37117;50.050;19.924;2022-12-07T05:42:25;17.30;;;13.00;;
38338;SDS011;37117;50.050;19.924;2022-12-07T05:44:55;15.80;;;10.80;;
38338;SDS011;37117;50.050;19.924;2022-12-07T05:47:26;14.30;;;10.30;;
38338;SDS011;37117;50.050;19.924;2022-12-07T05:49:57;12.90;;;9.80;;
38338;SDS011;37117;50.050;19.924;2022-12-07T05:52:28;13.50;;;9.30;;
38338;SDS011;37117;50.050;19.924;2022-12-07T05:54:58;13.30;;;9.20;;
38338;SDS011;37117;50.050;19.924;2022-12-07T05:57:29;10.90;;;8.40;;
38338;SDS011;37117;50.050;19.924;2022-12-07T06:00:00;11.70;;;8.40;;
38338;SDS011;37117;50.050;19.924;2022-12-07T06:02:40;13.90;;;8.80;;
38338;SDS011;37117;50.050;19.924;2022-12-07T06:05:11;11.50;;;7.90;;
38338;SDS011;37117;50.050;19.924;2022-12-07T06:07:41;12.80;;;8.40;;
38338;SDS011;37117;50.050;19.924;2022-12-07T06:10:12;13.50;;;8.90;;
38338;SDS011;37117;50.050;19.924;2022-12-07T06:12:42;11.30;;;8.20;;
38338;SDS011;37117;50.050;19.924;2022-12-07T06:15:16;11.10;;;8.10;;
38338;SDS011;37117;50.050;19.924;2022-12-07T06:17:46;14.70;;;8.20;;
38338;SDS011;37117;50.050;19.924;2022-12-07T06:20:17;12.50;;;8.50;;
38338;SDS011;37117;50.050;19.924;2022-12-07T06:22:47;11.50;;;8.50;;
38338;SDS011;37117;50.050;19.924;2022-12-07T06:25:18;15.90;;;10.90;;
38338;SDS011;37117;50.050;19.924;2022-12-07T06:27:49;12.40;;;8.50;;
38338;SDS011;37117;50.050;19.924;2022-12-07T06:30:19;12.80;;;7.60;;
38338;SDS011;37117;50.050;19.924;2022-12-07T06:32:50;11.90;;;7.70;;
38338;SDS011;37117;50.050;19.924;2022-12-07T06:35:20;12.90;;;7.90;;
38338;SDS011;37117;50.050;19.924;2022-12-07T06:37:50;10.60;;;7.50;;
38338;SDS011;37117;50.050;19.924;2022-12-07T06:40:21;12.50;;;8.20;;
38338;SDS011;37117;50.050;19.924;2022-12-07T06:42:51;12.50;;;9.20;;
38338;SDS011;37117;50.050;19.924;2022-12-07T06:45:22;13.80;;;9.80;;
38338;SDS011;37117;50.050;19.924;2022-12-07T06:47:52;12.70;;;9.00;;
38338;SDS011;37117;50.050;19.924;2022-12-07T06:50:23;13.00;;;9.20;;
38338;SDS011;37117;50.050;19.924;2022-12-07T06:52:54;12.30;;;8.90;;
38338;SDS011;37117;50.050;19.924;2022-12-07T06:55:24;12.30;;;8.50;;
38338;SDS011;37117;50.050;19.924;2022-12-07T06:57:55;14.50;;;9.90;;
38338;SDS011;37117;50.050;19.924;2022-12-07T07:00:26;12.20;;;8.90;;
38338;SDS011;37117;50.050;19.924;2022-12-07T07:02:57;14.00;;;9.60;;
38338;SDS011;37117;50.050;19.924;2022-12-07T07:05:28;12.80;;;9.40;;
38338;SDS011;37117;50.050;19.924;2022-12-07T07:07:58;13.50;;;9.00;;
38338;SDS011;37117;50.050;19.924;2022-12-07T07:21:15;16.60;;;10.90;;
38338;SDS011;37117;50.050;19.924;2022-12-07T07:23:46;18.60;;;11.20;;
38338;SDS011;37117;50.050;19.924;2022-12-07T07:26:17;15.70;;;11.30;;
38338;SDS011;37117;50.050;19.924;2022-12-07T07:28:51;16.80;;;11.30;;
38338;SDS011;37117;50.050;19.924;2022-12-07T07:31:22;18.70;;;11.70;;
38338;SDS011;37117;50.050;19.924;2022-12-07T07:33:52;18.30;;;13.00;;
38338;SDS011;37117;50.050;19.924;2022-12-07T07:36:23;17.90;;;10.90;;
38338;SDS011;37117;50.050;19.924;2022-12-07T07:38:54;20.40;;;12.30;;
38338;SDS011;37117;50.050;19.924;2022-12-07T07:41:24;15.90;;;10.90;;
38338;SDS011;37117;50.050;19.924;2022-12-07T07:43:55;19.90;;;12.60;;
38338;SDS011;37117;50.050;19.924;2022-12-07T07:46:26;17.80;;;12.70;;
38338;SDS011;37117;50.050;19.924;2022-12-07T07:48:57;18.00;;;11.30;;
38338;SDS011;37117;50.050;19.924;2022-12-07T07:51:27;17.50;;;12.80;;
38338;SDS011;37117;50.050;19.924;2022-12-07T07:53:58;16.80;;;11.60;;
38338;SDS011;37117;50.050;19.924;2022-12-07T07:56:29;18.60;;;11.00;;
38338;SDS011;37117;50.050;19.924;2022-12-07T07:59:02;18.30;;;11.80;;
38338;SDS011;37117;50.050;19.924;2022-12-07T08:01:32;17.60;;;12.00;;
38338;SDS011;37117;50.050;19.924;2022-12-07T08:04:03;16.80;;;11.70;;
38338;SDS011;37117;50.050;19.924;2022-12-07T08:06:34;16.70;;;11.90;;
38338;SDS011;37117;50.050;19.924;2022-12-07T08:09:04;16.80;;;11.10;;
38338;SDS011;37117;50.050;19.924;2022-12-07T08:11:35;16.60;;;12.20;;
38338;SDS011;37117;50.050;19.924;2022-12-07T08:14:06;17.80;;;11.60;;
38338;SDS011;37117;50.050;19.924;2022-12-07T08:16:37;15.60;;;11.80;;
38338;SDS011;37117;50.050;19.924;2022-12-07T08:19:07;15.10;;;10.70;;
38338;SDS011;37117;50.050;19.924;2022-12-07T08:21:40;14.40;;;10.60;;
38338;SDS011;37117;50.050;19.924;2022-12-07T08:24:11;14.70;;;9.90;;
38338;SDS011;37117;50.050;19.924;2022-12-07T08:26:41;12.80;;;9.90;;
38338;SDS011;37117;50.050;19.924;2022-12-07T08:29:12;12.90;;;8.90;;
38338;SDS011;37117;50.050;19.924;2022-12-07T08:31:42;12.80;;;9.70;;
38338;SDS011;37117;50.050;19.924;2022-12-07T08:34:13;13.70;;;8.90;;
38338;SDS011;37117;50.050;19.924;2022-12-07T08:36:44;16.00;;;9.30;;
38338;SDS011;37117;50.050;19.924;2022-12-07T08:39:14;16.00;;;10.50;;
38338;SDS011;37117;50.050;19.924;2022-12-07T08:41:59;11.70;;;8.50;;
38338;SDS011;37117;50.050;19.924;2022-12-07T08:44:30;14.50;;;9.80;;
38338;SDS011;37117;50.050;19.924;2022-12-07T08:47:01;13.10;;;9.60;;
38338;SDS011;37117;50.050;19.924;2022-12-07T08:49:33;12.60;;;8.80;;
38338;SDS011;37117;50.050;19.924;2022-12-07T08:52:06;14.20;;;9.30;;
38338;SDS011;37117;50.050;19.924;2022-12-07T08:54:43;17.50;;;11.70;;
38338;SDS011;37117;50.050;19.924;2022-12-07T08:57:28;18.40;;;10.90;;
38338;SDS011;37117;50.050;19.924;2022-12-07T08:59:59;15.60;;;11.20;;
38338;SDS011;37117;50.050;19.924;2022-12-07T09:02:30;16.70;;;10.60;;
38338;SDS011;37117;50.050;19.924;2022-12-07T09:05:01;18.30;;;12.20;;
38338;SDS011;37117;50.050;19.924;2022-12-07T09:07:32;15.10;;;11.60;;
38338;SDS011;37117;50.050;19.924;2022-12-07T09:10:05;17.90;;;12.00;;
38338;SDS011;37117;50.050;19.924;2022-12-07T09:12:35;18.30;;;11.10;;
38338;SDS011;37117;50.050;19.924;2022-12-07T09:15:06;17.70;;;12.10;;
38338;SDS011;37117;50.050;19.924;2022-12-07T09:17:37;15.50;;;10.70;;
38338;SDS011;37117;50.050;19.924;2022-12-07T09:20:08;15.70;;;10.90;;
38338;SDS011;37117;50.050;19.924;2022-12-07T09:22:39;17.80;;;11.70;;
38338;SDS011;37117;50.050;19.924;2022-12-07T09:25:09;17.30;;;10.20;;
38338;SDS011;37117;50.050;19.924;2022-12-07T09:27:40;14.40;;;10.10;;
38338;SDS011;37117;50.050;19.924;2022-12-07T09:30:13;15.30;;;10.60;;
38338;SDS011;37117;50.050;19.924;2022-12-07T09:32:44;16.10;;;10.20;;
38338;SDS011;37117;50.050;19.924;2022-12-07T09:35:14;16.60;;;10.90;;
38338;SDS011;37117;50.050;19.924;2022-12-07T09:37:45;14.40;;;10.30;;
38338;SDS011;37117;50.050;19.924;2022-12-07T09:40:16;14.20;;;10.20;;
38338;SDS011;37117;50.050;19.924;2022-12-07T09:42:49;12.30;;;8.80;;
38338;SDS011;37117;50.050;19.924;2022-12-07T09:45:21;12.40;;;9.40;;
38338;SDS011;37117;50.050;19.924;2022-12-07T09:47:52;13.00;;;8.30;;
38338;SDS011;37117;50.050;19.924;2022-12-07T09:50:23;12.00;;;8.20;;
38338;SDS011;37117;50.050;19.924;2022-12-07T09:53:01;12.80;;;9.00;;
38338;SDS011;37117;50.050;19.924;2022-12-07T09:55:34;11.70;;;7.70;;
38338;SDS011;37117;50.050;19.924;2022-12-07T09:58:06;11.30;;;7.40;;
38338;SDS011;37117;50.050;19.924;2022-12-07T10:00:36;12.30;;;8.30;;
38338;SDS011;37117;50.050;19.924;2022-12-07T10:03:09;10.40;;;7.60;;
38338;SDS011;37117;50.050;19.924;2022-12-07T10:05:42;12.50;;;6.90;;
38338;SDS011;37117;50.050;19.924;2022-12-07T10:08:14;12.20;;;8.30;;
38338;SDS011;37117;50.050;19.924;2022-12-07T10:10:48;11.00;;;7.70;;
38338;SDS011;37117;50.050;19.924;2022-12-07T10:13:20;11.30;;;8.50;;
38338;SDS011;37117;50.050;19.924;2022-12-07T10:15:52;15.30;;;9.50;;
38338;SDS011;37117;50.050;19.924;2022-12-07T10:18:27;14.20;;;9.40;;
38338;SDS011;37117;50.050;19.924;2022-12-07T10:21:03;12.90;;;8.70;;
38338;SDS011;37117;50.050;19.924;2022-12-07T10:23:37;13.40;;;8.30;;
38338;SDS011;37117;50.050;19.924;2022-12-07T10:26:20;11.20;;;9.00;;
38338;SDS011;37117;50.050;19.924;2022-12-07T10:28:51;14.90;;;9.70;;
38338;SDS011;37117;50.050;19.924;2022-12-07T10:31:22;14.80;;;9.80;;
38338;SDS011;37117;50.050;19.924;2022-12-07T10:33:54;14.80;;;10.90;;
38338;SDS011;37117;50.050;19.924;2022-12-07T10:36:26;13.80;;;9.90;;
38338;SDS011;37117;50.050;19.924;2022-12-07T10:39:00;14.30;;;9.70;;
38338;SDS011;37117;50.050;19.924;2022-12-07T10:41:32;12.10;;;8.60;;
38338;SDS011;37117;50.050;19.924;2022-12-07T10:44:02;13.50;;;9.70;;
38338;SDS011;37117;50.050;19.924;2022-12-07T10:46:48;13.70;;;8.90;;
38338;SDS011;37117;50.050;19.924;2022-12-07T10:49:31;13.90;;;10.00;;
38338;SDS011;37117;50.050;19.924;2022-12-07T10:52:07;13.60;;;9.00;;
38338;SDS011;37117;50.050;19.924;2022-12-07T10:54:42;13.80;;;9.10;;
38338;SDS011;37117;50.050;19.924;2022-12-07T10:57:19;14.70;;;9.50;;
38338;SDS011;37117;50.050;19.924;2022-12-07T11:00:04;10.40;;;6.60;;
38338;SDS011;37117;50.050;19.924;2022-12-07T11:05:21;13.40;;;8.30;;
38338;SDS011;37117;50.050;19.924;2022-12-07T11:07:58;12.20;;;7.50;;
38338;SDS011;37117;50.050;19.924;2022-12-07T11:10:33;9.60;;;6.80;;
38338;SDS011;37117;50.050;19.924;2022-12-07T11:13:13;14.10;;;7.70;;
38338;SDS011;37117;50.050;19.924;2022-12-07T11:15:53;10.70;;;6.60;;
38338;SDS011;37117;50.050;19.924;2022-12-07T11:18:27;11.70;;;7.70;;
38338;SDS011;37117;50.050;19.924;2022-12-07T11:23:30;9.70;;;6.90;;
38338;SDS011;37117;50.050;19.924;2022-12-07T11:26:07;10.30;;;6.70;;
38338;SDS011;37117;50.050;19.924;2022-12-07T11:28:46;9.50;;;5.90;;
38338;SDS011;37117;50.050;19.924;2022-12-07T11:31:22;10.80;;;7.00;;
38338;SDS011;37117;50.050;19.924;2022-12-07T11:34:00;9.30;;;5.30;;
38338;SDS011;37117;50.050;19.924;2022-12-07T11:36:35;10.80;;;6.40;;
38338;SDS011;37117;50.050;19.924;2022-12-07T11:39:10;8.90;;;6.00;;
38338;SDS011;37117;50.050;19.924;2022-12-07T11:41:42;9.60;;;6.60;;
38338;SDS011;37117;50.050;19.924;2022-12-07T11:44:17;6.80;;;5.10;;
38338;SDS011;37117;50.050;19.924;2022-12-07T11:46:56;10.20;;;6.40;;
38338;SDS011;37117;50.050;19.924;2022-12-07T11:49:31;10.40;;;6.10;;
38338;SDS011;37117;50.050;19.924;2022-12-07T11:52:09;8.90;;;5.90;;
38338;SDS011;37117;50.050;19.924;2022-12-07T11:54:42;8.20;;;5.30;;
38338;SDS011;37117;50.050;19.924;2022-12-07T11:57:17;8.70;;;5.80;;
38338;SDS011;37117;50.050;19.924;2022-12-07T11:59:49;8.50;;;5.90;;
38338;SDS011;37117;50.050;19.924;2022-12-07T12:02:21;8.70;;;5.40;;
38338;SDS011;37117;50.050;19.924;2022-12-07T12:04:54;9.80;;;6.30;;
38338;SDS011;37117;50.050;19.924;2022-12-07T12:07:27;9.90;;;5.60;;
38338;SDS011;37117;50.050;19.924;2022-12-07T12:10:19;9.30;;;5.80;;
38338;SDS011;37117;50.050;19.924;2022-12-07T12:13:07;9.20;;;5.20;;
38338;SDS011;37117;50.050;19.924;2022-12-07T12:16:07;8.30;;;5.40;;
38338;SDS011;37117;50.050;19.924;2022-12-07T12:18:48;9.30;;;5.50;;
38338;SDS011;37117;50.050;19.924;2022-12-07T12:21:25;8.30;;;6.00;;
38338;SDS011;37117;50.050;19.924;2022-12-07T12:23:57;9.30;;;5.80;;
38338;SDS011;37117;50.050;19.924;2022-12-07T12:26:29;8.40;;;5.50;;
38338;SDS011;37117;50.050;19.924;2022-12-07T12:29:02;9.10;;;6.00;;
38338;SDS011;37117;50.050;19.924;2022-12-07T12:31:35;10.70;;;6.00;;
38338;SDS011;37117;50.050;19.924;2022-12-07T12:39:23;8.30;;;5.50;;
38338;SDS011;37117;50.050;19.924;2022-12-07T12:41:58;8.50;;;5.50;;
38338;SDS011;37117;50.050;19.924;2022-12-07T12:47:51;8.60;;;5.10;;
38338;SDS011;37117;50.050;19.924;2022-12-07T12:50:24;7.90;;;4.80;;
38338;SDS011;37117;50.050;19.924;2022-12-07T12:55:46;8.00;;;5.50;;
38338;SDS011;37117;50.050;19.924;2022-12-07T12:58:38;8.10;;;5.10;;
38338;SDS011;37117;50.050;19.924;2022-12-07T13:03:57;7.40;;;4.50;;
38338;SDS011;37117;50.050;19.924;2022-12-07T13:06:34;7.40;;;4.30;;
38338;SDS011;37117;50.050;19.924;2022-12-07T13:09:15;7.70;;;4.60;;
38338;SDS011;37117;50.050;19.924;2022-12-07T13:11:47;7.80;;;4.10;;
38338;SDS011;37117;50.050;19.924;2022-12-07T13:17:09;7.20;;;4.60;;
38338;SDS011;37117;50.050;19.924;2022-12-07T13:25:20;8.20;;;4.10;;
38338;SDS011;37117;50.050;19.924;2022-12-07T13:27:54;7.30;;;4.80;;
38338;SDS011;37117;50.050;19.924;2022-12-07T13:30:26;8.90;;;4.40;;
38338;SDS011;37117;50.050;19.924;2022-12-07T13:32:58;8.50;;;4.20;;
38338;SDS011;37117;50.050;19.924;2022-12-07T13:35:32;8.20;;;4.50;;
38338;SDS011;37117;50.050;19.924;2022-12-07T13:38:04;6.40;;;4.40;;
38338;SDS011;37117;50.050;19.924;2022-12-07T13:40:35;7.60;;;4.30;;
38338;SDS011;37117;50.050;19.924;2022-12-07T13:43:13;7.30;;;4.10;;
38338;SDS011;37117;50.050;19.924;2022-12-07T13:45:45;7.40;;;4.80;;
38338;SDS011;37117;50.050;19.924;2022-12-07T13:48:28;8.80;;;4.50;;
38338;SDS011;37117;50.050;19.924;2022-12-07T13:51:02;8.70;;;4.70;;
38338;SDS011;37117;50.050;19.924;2022-12-07T13:53:33;6.90;;;4.10;;
38338;SDS011;37117;50.050;19.924;2022-12-07T13:56:04;8.90;;;4.90;;
38338;SDS011;37117;50.050;19.924;2022-12-07T13:58:35;7.40;;;4.90;;
38338;SDS011;37117;50.050;19.924;2022-12-07T14:01:05;9.10;;;5.00;;
38338;SDS011;37117;50.050;19.924;2022-12-07T14:03:36;9.50;;;4.80;;
38338;SDS011;37117;50.050;19.924;2022-12-07T14:06:12;8.70;;;4.90;;
38338;SDS011;37117;50.050;19.924;2022-12-07T14:08:44;10.40;;;6.00;;
38338;SDS011;37117;50.050;19.924;2022-12-07T14:11:16;10.00;;;5.70;;
38338;SDS011;37117;50.050;19.924;2022-12-07T14:13:57;9.10;;;5.40;;
38338;SDS011;37117;50.050;19.924;2022-12-07T14:16:29;12.90;;;6.40;;
38338;SDS011;37117;50.050;19.924;2022-12-07T14:19:00;8.70;;;5.30;;
38338;SDS011;37117;50.050;19.924;2022-12-07T14:21:32;10.20;;;6.00;;
38338;SDS011;37117;50.050;19.924;2022-12-07T14:24:14;10.30;;;6.10;;
38338;SDS011;37117;50.050;19.924;2022-12-07T14:26:45;10.30;;;5.70;;
38338;SDS011;37117;50.050;19.924;2022-12-07T14:29:20;7.80;;;4.70;;
38338;SDS011;37117;50.050;19.924;2022-12-07T14:31:51;10.30;;;6.30;;
38338;SDS011;37117;50.050;19.924;2022-12-07T14:34:22;10.30;;;6.60;;
38338;SDS011;37117;50.050;19.924;2022-12-07T14:36:53;8.00;;;5.10;;
38338;SDS011;37117;50.050;19.924;2022-12-07T14:39:24;9.20;;;5.70;;
38338;SDS011;37117;50.050;19.924;2022-12-07T14:41:54;8.90;;;6.00;;
38338;SDS011;37117;50.050;19.924;2022-12-07T14:44:25;10.40;;;5.80;;
38338;SDS011;37117;50.050;19.924;2022-12-07T14:47:03;11.00;;;6.70;;
38338;SDS011;37117;50.050;19.924;2022-12-07T14:49:54;10.20;;;6.00;;
38338;SDS011;37117;50.050;19.924;2022-12-07T14:52:29;9.40;;;6.10;;
38338;SDS011;37117;50.050;19.924;2022-12-07T14:55:22;8.50;;;5.90;;
38338;SDS011;37117;50.050;19.924;2022-12-07T14:57:53;11.70;;;6.20;;
38338;SDS011;37117;50.050;19.924;2022-12-07T15:00:25;10.90;;;6.50;;
38338;SDS011;37117;50.050;19.924;2022-12-07T15:02:56;10.20;;;6.00;;
38338;SDS011;37117;50.050;19.924;2022-12-07T15:05:27;12.90;;;6.90;;
38338;SDS011;37117;50.050;19.924;2022-12-07T15:07:58;9.40;;;6.10;;
38338;SDS011;37117;50.050;19.924;2022-12-07T15:10:30;9.60;;;6.10;;
38338;SDS011;37117;50.050;19.924;2022-12-07T15:13:02;10.10;;;6.30;;
38338;SDS011;37117;50.050;19.924;2022-12-07T15:15:46;11.30;;;6.60;;
38338;SDS011;37117;50.050;19.924;2022-12-07T15:18:18;11.10;;;7.20;;
38338;SDS011;37117;50.050;19.924;2022-12-07T15:20:49;9.80;;;7.00;;
38338;SDS011;37117;50.050;19.924;2022-12-07T15:23:23;11.90;;;8.00;;
38338;SDS011;37117;50.050;19.924;2022-12-07T15:25:53;9.70;;;7.20;;
38338;SDS011;37117;50.050;19.924;2022-12-07T15:28:24;12.30;;;8.40;;
38338;SDS011;37117;50.050;19.924;2022-12-07T15:30:55;12.80;;;7.50;;
38338;SDS011;37117;50.050;19.924;2022-12-07T15:33:27;12.60;;;7.90;;
38338;SDS011;37117;50.050;19.924;2022-12-07T15:35:58;13.00;;;8.60;;
38338;SDS011;37117;50.050;19.924;2022-12-07T15:38:29;17.00;;;9.30;;
38338;SDS011;37117;50.050;19.924;2022-12-07T15:41:20;12.10;;;8.60;;
38338;SDS011;37117;50.050;19.924;2022-12-07T15:43:50;13.80;;;10.20;;